Time;durP1;ratioP1;P1;durP2;ratioP2;P2;SDS_P1;SDS_P2;PMS_P1;PMS_P2;Temp;Humidity;BMP_temperature;BMP_pressure;BME280_temperature;BME280_humidity;BME280_pressure;Samples;Min_cycle;Max_cycle;Signal;HPM_P1;HPM_P2
2023/06/02 00:01:02;;;;;;;25.75;10.73;;;;;;;;;;6283018;22;20094;-84
2023/06/02 00:03:32;;;;;;;15.65;9.10;;;;;;;;;;6309956;22;20011;-84
2023/06/02 00:06:14;;;;;;;21.08;10.02;;;;;;;;;;6257694;22;20011;-83
2023/06/02 00:08:40;;;;;;;21.63;9.70;;;;;;;;;;6311532;22;20008;-84
2023/06/02 00:11:07;;;;;;;19.08;10.40;;;;;;;;;;6284349;22;20011;-84
2023/06/02 00:13:33;;;;;;;26.13;10.57;;;;;;;;;;6283811;22;20019;-84
2023/06/02 00:15:59;;;;;;;25.20;11.15;;;;;;;;;;6284236;22;20012;-84
2023/06/02 00:18:26;;;;;;;28.33;8.98;;;;;;;;;;6283640;22;20283;-84
2023/06/02 00:20:52;;;;;;;22.00;10.82;;;;;;;;;;6283466;22;20058;-84
2023/06/02 00:23:19;;;;;;;23.65;12.52;;;;;;;;;;6283930;22;20008;-85
2023/06/02 00:25:45;;;;;;;18.58;9.45;;;;;;;;;;6257343;22;20084;-83
2023/06/02 00:28:12;;;;;;;25.08;10.15;;;;;;;;;;6257375;22;20014;-85
2023/06/02 00:30:38;;;;;;;23.60;10.02;;;;;;;;;;6284036;22;20011;-84
2023/06/02 00:33:04;;;;;;;18.30;9.32;;;;;;;;;;6282874;22;20071;-85
2023/06/02 00:35:30;;;;;;;23.10;9.48;;;;;;;;;;6282960;22;20011;-85
2023/06/02 00:37:57;;;;;;;20.23;9.75;;;;;;;;;;6283137;22;20019;-84
2023/06/02 00:40:23;;;;;;;23.30;9.27;;;;;;;;;;6256641;22;20072;-84
2023/06/02 00:42:49;;;;;;;20.42;9.93;;;;;;;;;;6282063;22;20430;-84
2023/06/02 00:45:16;;;;;;;20.17;10.13;;;;;;;;;;6257693;22;20011;-84
2023/06/02 00:47:42;;;;;;;19.63;9.30;;;;;;;;;;6282736;22;20022;-83
2023/06/02 00:50:08;;;;;;;21.13;11.30;;;;;;;;;;6283381;22;20049;-84
2023/06/02 00:52:34;;;;;;;26.75;10.70;;;;;;;;;;6277448;22;20342;-84
2023/06/02 00:55:04;;;;;;;30.35;11.45;;;;;;;;;;6277352;22;20015;-84
2023/06/02 00:57:33;;;;;;;26.00;9.55;;;;;;;;;;6251571;22;20012;-84
2023/06/02 01:00:00;;;;;;;18.52;11.02;;;;;;;;;;6276050;22;20012;-83
2023/06/02 01:02:26;;;;;;;20.98;10.70;;;;;;;;;;6251474;22;20043;-83
2023/06/02 01:04:53;;;;;;;20.77;11.70;;;;;;;;;;6277013;22;20410;-83
2023/06/02 01:07:24;;;;;;;20.42;11.65;;;;;;;;;;6249405;22;20016;-84
2023/06/02 01:09:51;;;;;;;26.88;11.85;;;;;;;;;;6251164;22;20458;-84
2023/06/02 01:12:18;;;;;;;26.40;11.90;;;;;;;;;;6277145;22;20031;-84
2023/06/02 01:14:44;;;;;;;23.45;10.85;;;;;;;;;;6251942;22;20020;-84
2023/06/02 01:17:10;;;;;;;21.33;10.30;;;;;;;;;;6278529;22;20066;-85
2023/06/02 01:19:38;;;;;;;17.60;9.98;;;;;;;;;;6256815;22;20012;-84
2023/06/02 01:22:05;;;;;;;21.73;10.88;;;;;;;;;;6284396;22;20016;-83
2023/06/02 01:24:41;;;;;;;17.48;9.82;;;;;;;;;;6283752;22;20012;-84
2023/06/02 01:27:08;;;;;;;29.65;12.25;;;;;;;;;;6279087;22;20016;-83
2023/06/02 01:29:35;;;;;;;19.67;10.80;;;;;;;;;;6277157;22;20370;-84
2023/06/02 01:32:04;;;;;;;24.67;10.60;;;;;;;;;;6278406;22;20083;-85
2023/06/02 01:34:32;;;;;;;20.45;10.35;;;;;;;;;;6252485;22;20047;-84
2023/06/02 01:36:59;;;;;;;22.27;12.05;;;;;;;;;;6278647;22;20439;-84
2023/06/02 01:39:27;;;;;;;28.58;10.35;;;;;;;;;;6278047;22;20012;-84
2023/06/02 01:41:54;;;;;;;21.10;10.20;;;;;;;;;;6280295;22;20043;-85
2023/06/02 01:44:20;;;;;;;23.98;9.43;;;;;;;;;;6255572;22;20076;-84
2023/06/02 01:46:48;;;;;;;21.30;9.40;;;;;;;;;;6255044;22;20008;-83
2023/06/02 01:49:15;;;;;;;20.38;10.02;;;;;;;;;;6281594;22;20105;-84
2023/06/02 01:51:41;;;;;;;20.00;9.95;;;;;;;;;;6255115;22;20095;-83
2023/06/02 01:54:07;;;;;;;26.38;11.60;;;;;;;;;;6280298;22;20035;-85
2023/06/02 01:56:33;;;;;;;17.17;9.85;;;;;;;;;;6254660;22;20397;-83
2023/06/02 01:59:00;;;;;;;16.17;8.98;;;;;;;;;;6253488;22;20012;-85
2023/06/02 02:01:27;;;;;;;26.95;10.15;;;;;;;;;;6254207;22;20163;-84
2023/06/02 02:03:53;;;;;;;19.05;9.25;;;;;;;;;;6252747;22;20051;-84
2023/06/02 02:06:24;;;;;;;26.23;9.38;;;;;;;;;;6280579;22;20027;-84
2023/06/02 02:08:50;;;;;;;20.15;8.40;;;;;;;;;;6278353;22;20084;-84
2023/06/02 02:11:17;;;;;;;26.13;8.25;;;;;;;;;;6278831;22;20033;-84
2023/06/02 02:13:43;;;;;;;19.80;8.35;;;;;;;;;;6279370;22;20011;-84
2023/06/02 02:16:09;;;;;;;22.77;9.80;;;;;;;;;;6281356;22;20038;-84
2023/06/02 02:18:35;;;;;;;18.58;6.90;;;;;;;;;;6278892;22;20039;-84
2023/06/02 02:21:01;;;;;;;21.60;9.52;;;;;;;;;;6280455;22;20019;-84
2023/06/02 02:23:27;;;;;;;20.30;9.18;;;;;;;;;;6278609;22;20014;-84
2023/06/02 02:25:53;;;;;;;24.50;8.82;;;;;;;;;;6252607;22;20346;-84
2023/06/02 02:28:19;;;;;;;21.98;9.50;;;;;;;;;;6252732;22;20018;-84
2023/06/02 02:30:45;;;;;;;24.55;8.32;;;;;;;;;;6253673;22;20011;-84
2023/06/02 02:33:12;;;;;;;20.95;7.38;;;;;;;;;;6279111;22;20054;-85
2023/06/02 02:35:38;;;;;;;25.70;8.85;;;;;;;;;;6282269;22;20016;-84
2023/06/02 02:38:05;;;;;;;25.20;8.30;;;;;;;;;;6281022;22;20011;-84
2023/06/02 02:40:31;;;;;;;22.20;8.63;;;;;;;;;;6253877;22;20114;-84
2023/06/02 02:42:57;;;;;;;21.25;7.63;;;;;;;;;;6278592;22;20404;-84
2023/06/02 02:45:23;;;;;;;20.98;7.85;;;;;;;;;;6279329;22;20020;-84
2023/06/02 02:47:49;;;;;;;29.33;9.77;;;;;;;;;;6280219;22;20064;-84
2023/06/02 02:50:15;;;;;;;25.33;8.85;;;;;;;;;;6252546;22;20015;-84
2023/06/02 02:52:41;;;;;;;19.08;8.10;;;;;;;;;;6254387;22;20085;-84
2023/06/02 02:55:07;;;;;;;22.25;8.23;;;;;;;;;;6253909;22;20043;-84
2023/06/02 02:57:33;;;;;;;28.77;8.15;;;;;;;;;;6252737;22;20022;-84
2023/06/02 02:59:59;;;;;;;22.75;9.38;;;;;;;;;;6280467;22;20012;-84
2023/06/02 03:02:25;;;;;;;17.08;7.95;;;;;;;;;;6278656;22;20391;-84
2023/06/02 03:04:52;;;;;;;20.58;8.13;;;;;;;;;;6278665;22;20016;-84
2023/06/02 03:07:18;;;;;;;24.98;8.48;;;;;;;;;;6252267;22;20016;-84
2023/06/02 03:09:44;;;;;;;21.25;8.32;;;;;;;;;;6252263;22;20016;-84
2023/06/02 03:12:10;;;;;;;20.67;8.38;;;;;;;;;;6275892;22;20518;-85
2023/06/02 03:14:36;;;;;;;25.05;8.38;;;;;;;;;;6277324;22;20395;-84
2023/06/02 03:17:03;;;;;;;24.17;8.55;;;;;;;;;;6252582;22;20011;-85
2023/06/02 03:19:29;;;;;;;21.30;8.68;;;;;;;;;;6277401;22;20012;-83
2023/06/02 03:21:56;;;;;;;29.65;9.80;;;;;;;;;;6252673;22;20406;-84
2023/06/02 03:24:22;;;;;;;22.60;7.97;;;;;;;;;;6278627;22;20338;-84
2023/06/02 03:26:51;;;;;;;20.90;8.38;;;;;;;;;;6252758;22;20012;-84
2023/06/02 03:29:17;;;;;;;24.30;8.63;;;;;;;;;;6278121;22;20008;-84
2023/06/02 03:31:43;;;;;;;23.55;8.45;;;;;;;;;;6278170;22;20066;-84
2023/06/02 03:34:09;;;;;;;22.63;8.43;;;;;;;;;;6278486;22;20494;-84
2023/06/02 03:36:36;;;;;;;23.55;8.25;;;;;;;;;;6278492;22;20122;-84
2023/06/02 03:39:07;;;;;;;20.33;8.00;;;;;;;;;;6252060;22;20066;-84
2023/06/02 03:41:33;;;;;;;21.58;8.27;;;;;;;;;;6277233;22;20465;-84
2023/06/02 03:44:00;;;;;;;20.00;8.13;;;;;;;;;;6252794;22;20016;-84
2023/06/02 03:46:26;;;;;;;22.08;8.52;;;;;;;;;;6277363;22;20016;-84
2023/06/02 03:48:52;;;;;;;22.45;8.57;;;;;;;;;;6252667;22;20094;-84
2023/06/02 03:51:18;;;;;;;19.80;8.68;;;;;;;;;;6278097;22;20081;-84
2023/06/02 03:53:45;;;;;;;20.02;7.93;;;;;;;;;;6253135;22;20071;-84
2023/06/02 03:56:12;;;;;;;19.10;8.00;;;;;;;;;;6278203;22;20030;-84
2023/06/02 03:58:38;;;;;;;18.45;8.30;;;;;;;;;;6251904;22;20022;-84
2023/06/02 04:01:04;;;;;;;25.17;8.38;;;;;;;;;;6278813;22;20012;-84
2023/06/02 04:03:36;;;;;;;21.67;8.48;;;;;;;;;;6252359;22;20007;-83
2023/06/02 04:06:03;;;;;;;22.27;8.07;;;;;;;;;;6279123;22;20012;-84
2023/06/02 04:08:29;;;;;;;25.13;8.70;;;;;;;;;;6278119;22;20007;-85
2023/06/02 04:10:55;;;;;;;22.50;8.13;;;;;;;;;;6250402;22;20384;-84
2023/06/02 04:13:22;;;;;;;26.27;7.80;;;;;;;;;;6277685;22;20386;-84
2023/06/02 04:15:48;;;;;;;18.98;7.47;;;;;;;;;;6253273;22;20034;-84
2023/06/02 04:18:14;;;;;;;18.98;7.53;;;;;;;;;;6280808;22;20070;-83
2023/06/02 04:20:40;;;;;;;22.33;7.82;;;;;;;;;;6279050;22;20008;-84
2023/06/02 04:23:06;;;;;;;19.75;8.15;;;;;;;;;;6276312;22;20490;-85
2023/06/02 04:25:32;;;;;;;20.50;7.90;;;;;;;;;;6250913;22;20034;-84
2023/06/02 04:27:58;;;;;;;24.05;7.95;;;;;;;;;;6251248;22;20015;-84
2023/06/02 04:30:24;;;;;;;24.48;8.20;;;;;;;;;;6251190;22;20018;-84
2023/06/02 04:32:50;;;;;;;25.33;8.55;;;;;;;;;;6277833;22;20047;-83
2023/06/02 04:35:16;;;;;;;24.40;7.82;;;;;;;;;;6250966;22;20023;-85
2023/06/02 04:37:44;;;;;;;25.58;7.75;;;;;;;;;;6278141;22;20028;-84
2023/06/02 04:40:10;;;;;;;26.63;8.05;;;;;;;;;;6278267;22;20458;-84
2023/06/02 04:42:39;;;;;;;20.88;7.25;;;;;;;;;;6253402;22;20012;-83
2023/06/02 04:45:11;;;;;;;24.67;8.68;;;;;;;;;;6277175;22;20018;-84
2023/06/02 04:47:38;;;;;;;23.92;8.73;;;;;;;;;;6276224;22;20439;-80
2023/06/02 04:50:04;;;;;;;24.42;8.35;;;;;;;;;;6276022;22;20069;-83
2023/06/02 04:52:30;;;;;;;25.83;8.73;;;;;;;;;;6250163;22;20546;-83
2023/06/02 04:54:57;;;;;;;24.48;7.90;;;;;;;;;;6277258;22;20043;-83
2023/06/02 04:57:22;;;;;;;24.55;8.30;;;;;;;;;;6276410;22;20066;-86
2023/06/02 04:59:49;;;;;;;21.77;7.53;;;;;;;;;;6251158;22;20012;-82
2023/06/02 05:02:15;;;;;;;19.92;8.50;;;;;;;;;;6276277;22;20016;-83
2023/06/02 05:04:41;;;;;;;25.83;8.38;;;;;;;;;;6275973;22;20023;-83
2023/06/02 05:07:07;;;;;;;24.45;8.25;;;;;;;;;;6274494;22;20016;-83
2023/06/02 05:09:33;;;;;;;19.92;7.82;;;;;;;;;;6273528;22;20059;-84
2023/06/02 05:11:59;;;;;;;28.40;8.13;;;;;;;;;;6248278;22;20117;-84
2023/06/02 05:14:26;;;;;;;19.67;8.00;;;;;;;;;;6272651;22;20447;-84
2023/06/02 05:16:54;;;;;;;26.13;8.82;;;;;;;;;;6274433;22;20114;-84
2023/06/02 05:19:19;;;;;;;22.23;8.43;;;;;;;;;;6248420;22;20063;-82
2023/06/02 05:21:45;;;;;;;24.27;8.10;;;;;;;;;;6274352;22;20015;-81
2023/06/02 05:24:11;;;;;;;21.95;7.72;;;;;;;;;;6275482;22;20316;-81
2023/06/02 05:26:38;;;;;;;20.83;7.72;;;;;;;;;;6250077;22;20016;-81
2023/06/02 05:29:04;;;;;;;22.40;9.32;;;;;;;;;;6277021;22;20319;-83
2023/06/02 05:31:30;;;;;;;21.20;8.23;;;;;;;;;;6279511;22;20016;-83
2023/06/02 05:33:56;;;;;;;16.65;7.57;;;;;;;;;;6277971;22;20023;-82
2023/06/02 05:36:22;;;;;;;28.23;8.50;;;;;;;;;;6276665;22;20012;-83
2023/06/02 05:38:48;;;;;;;26.42;7.63;;;;;;;;;;6278360;22;20007;-82
2023/06/02 05:41:14;;;;;;;20.95;8.55;;;;;;;;;;6252575;22;20011;-83
2023/06/02 05:43:40;;;;;;;24.80;7.18;;;;;;;;;;6278384;22;20016;-81
2023/06/02 05:46:06;;;;;;;27.35;7.57;;;;;;;;;;6274926;22;20011;-80
2023/06/02 05:48:32;;;;;;;25.80;7.93;;;;;;;;;;6272432;22;20007;-80
2023/06/02 05:50:58;;;;;;;29.55;7.63;;;;;;;;;;6245515;22;20014;-79
2023/06/02 05:53:24;;;;;;;29.00;7.75;;;;;;;;;;6292027;22;20719;-81
2023/06/02 05:55:50;;;;;;;25.25;8.80;;;;;;;;;;6278552;22;20016;-84
2023/06/02 05:58:16;;;;;;;32.08;9.35;;;;;;;;;;6277656;22;20093;-80
2023/06/02 06:00:42;;;;;;;23.52;8.23;;;;;;;;;;6278312;22;20084;-79
2023/06/02 06:03:08;;;;;;;26.48;8.77;;;;;;;;;;6277356;22;20438;-79
2023/06/02 06:05:34;;;;;;;28.33;8.77;;;;;;;;;;6272263;22;20015;-79
2023/06/02 06:08:00;;;;;;;21.38;7.03;;;;;;;;;;6276054;22;20342;-80
2023/06/02 06:10:26;;;;;;;23.73;8.43;;;;;;;;;;6304507;22;20449;-78
2023/06/02 06:12:52;;;;;;;29.88;8.60;;;;;;;;;;6250544;22;20094;-79
2023/06/02 06:15:18;;;;;;;31.33;8.05;;;;;;;;;;6276628;22;20008;-79
2023/06/02 06:17:52;;;;;;;29.65;9.07;;;;;;;;;;6276563;22;20069;-79
2023/06/02 06:20:18;;;;;;;32.25;8.77;;;;;;;;;;6275712;22;20015;-79
2023/06/02 06:22:44;;;;;;;30.33;8.02;;;;;;;;;;6276828;22;20089;-79
2023/06/02 06:25:11;;;;;;;26.45;8.68;;;;;;;;;;6304858;22;20070;-79
2023/06/02 06:27:37;;;;;;;33.97;9.02;;;;;;;;;;6278303;22;20460;-80
2023/06/02 06:30:04;;;;;;;31.00;8.70;;;;;;;;;;6277761;22;20453;-81
2023/06/02 06:32:30;;;;;;;33.53;8.30;;;;;;;;;;6277585;22;20072;-80
2023/06/02 06:34:59;;;;;;;25.35;9.05;;;;;;;;;;6275605;22;20015;-81
2023/06/02 06:37:32;;;;;;;26.15;7.75;;;;;;;;;;6269962;22;20068;-79
2023/06/02 06:39:58;;;;;;;26.17;8.00;;;;;;;;;;6251516;22;20018;-82
2023/06/02 06:42:24;;;;;;;23.67;8.68;;;;;;;;;;6250315;22;20246;-83
2023/06/02 06:44:51;;;;;;;25.73;9.05;;;;;;;;;;6275850;22;20505;-83
2023/06/02 06:47:17;;;;;;;34.28;10.07;;;;;;;;;;6275902;22;20472;-81
2023/06/02 06:49:43;;;;;;;24.92;9.43;;;;;;;;;;6304406;22;20068;-83
2023/06/02 06:52:09;;;;;;;26.75;10.00;;;;;;;;;;6277884;22;20022;-82
2023/06/02 06:54:35;;;;;;;27.48;10.20;;;;;;;;;;6251096;22;20049;-81
2023/06/02 06:57:01;;;;;;;28.75;8.07;;;;;;;;;;6275750;22;20453;-84
2023/06/02 06:59:27;;;;;;;24.50;7.65;;;;;;;;;;6276937;22;20047;-82
2023/06/02 07:01:53;;;;;;;22.30;8.50;;;;;;;;;;6276776;22;20042;-82
2023/06/02 07:04:19;;;;;;;21.20;6.50;;;;;;;;;;6276243;22;20026;-82
2023/06/02 07:06:46;;;;;;;21.98;6.95;;;;;;;;;;6250652;22;20011;-83
2023/06/02 07:09:12;;;;;;;20.65;6.45;;;;;;;;;;6251871;22;20015;-82
2023/06/02 07:11:38;;;;;;;16.13;5.47;;;;;;;;;;6276554;22;20316;-82
2023/06/02 07:14:04;;;;;;;21.92;6.22;;;;;;;;;;6251825;22;20072;-82
2023/06/02 07:16:31;;;;;;;21.00;6.68;;;;;;;;;;6277338;22;20091;-81
2023/06/02 07:18:57;;;;;;;19.70;7.22;;;;;;;;;;6276930;22;20042;-82
2023/06/02 07:21:25;;;;;;;30.60;7.35;;;;;;;;;;6305731;22;20015;-83
2023/06/02 07:23:51;;;;;;;29.90;10.27;;;;;;;;;;6277890;22;20378;-84
2023/06/02 07:26:17;;;;;;;21.05;6.32;;;;;;;;;;6277360;22;20104;-82
2023/06/02 07:28:43;;;;;;;17.40;5.35;;;;;;;;;;6277433;22;20015;-82
2023/06/02 07:31:09;;;;;;;19.20;7.10;;;;;;;;;;6277451;22;20064;-82
2023/06/02 07:33:35;;;;;;;21.45;5.65;;;;;;;;;;6251347;22;20011;-85
2023/06/02 07:36:01;;;;;;;15.75;4.43;;;;;;;;;;6276602;22;20381;-83
2023/06/02 07:38:27;;;;;;;20.90;5.20;;;;;;;;;;6304905;22;20099;-82
2023/06/02 07:40:53;;;;;;;21.40;6.15;;;;;;;;;;6252286;22;20095;-83
2023/06/02 07:43:19;;;;;;;21.60;6.60;;;;;;;;;;6251630;22;20022;-84
2023/06/02 07:45:45;;;;;;;29.45;14.82;;;;;;;;;;6304841;22;20077;-82
2023/06/02 07:48:11;;;;;;;40.80;36.55;;;;;;;;;;6250933;22;20015;-82
2023/06/02 07:50:37;;;;;;;73.00;67.55;;;;;;;;;;6277400;22;20068;-83
2023/06/02 07:53:03;;;;;;;51.28;47.13;;;;;;;;;;6276981;22;20023;-82
2023/06/02 07:55:29;;;;;;;48.78;44.67;;;;;;;;;;6251956;22;20023;-84
2023/06/02 07:57:55;;;;;;;53.95;49.17;;;;;;;;;;6277372;22;20071;-83
2023/06/02 08:00:21;;;;;;;62.25;57.42;;;;;;;;;;6304523;22;20083;-83
2023/06/02 08:02:47;;;;;;;84.57;78.43;;;;;;;;;;6303896;22;20363;-83
2023/06/02 08:05:14;;;;;;;61.45;56.42;;;;;;;;;;6251250;22;20049;-83
2023/06/02 08:07:40;;;;;;;109.82;102.80;;;;;;;;;;6251524;22;20026;-83
2023/06/02 08:10:07;;;;;;;126.97;118.45;;;;;;;;;;6277376;22;20015;-82
2023/06/02 08:12:33;;;;;;;200.18;187.57;;;;;;;;;;6277041;22;20057;-82
2023/06/02 08:14:59;;;;;;;242.82;227.43;;;;;;;;;;6276996;22;20105;-82
2023/06/02 08:17:29;;;;;;;228.52;214.20;;;;;;;;;;6276803;22;20034;-81
2023/06/02 08:20:04;;;;;;;217.68;203.93;;;;;;;;;;6277166;22;20454;-85
2023/06/02 08:22:32;;;;;;;243.82;228.77;;;;;;;;;;6304956;22;20090;-84
2023/06/02 08:24:58;;;;;;;239.55;224.93;;;;;;;;;;6277365;22;20072;-84
2023/06/02 08:27:24;;;;;;;302.90;283.92;;;;;;;;;;6276880;22;20385;-82
2023/06/02 08:29:51;;;;;;;345.05;324.05;;;;;;;;;;6250851;22;20015;-83
2023/06/02 08:32:18;;;;;;;320.33;300.00;;;;;;;;;;6275678;22;20046;-82
2023/06/02 08:34:50;;;;;;;340.13;318.50;;;;;;;;;;6276920;22;20012;-83
2023/06/02 08:37:16;;;;;;;266.48;249.73;;;;;;;;;;6276793;22;20014;-82
2023/06/02 08:39:46;;;;;;;392.70;366.27;;;;;;;;;;6251303;22;20011;-82
2023/06/02 08:42:12;;;;;;;340.05;318.38;;;;;;;;;;6276544;22;20337;-82
2023/06/02 08:44:40;;;;;;;469.25;437.40;;;;;;;;;;6275809;22;20019;-83
2023/06/02 08:47:09;;;;;;;448.10;418.10;;;;;;;;;;6276494;22;20015;-82
2023/06/02 08:49:35;;;;;;;438.15;408.75;;;;;;;;;;6250977;22;20011;-82
2023/06/02 08:52:04;;;;;;;511.50;476.50;;;;;;;;;;6304422;22;20015;-80
2023/06/02 08:54:30;;;;;;;375.05;350.23;;;;;;;;;;6276479;22;20023;-81
2023/06/02 08:57:00;;;;;;;332.73;312.13;;;;;;;;;;6250671;22;20015;-80
2023/06/02 08:59:26;;;;;;;253.60;237.82;;;;;;;;;;6250428;22;20042;-79
2023/06/02 09:01:52;;;;;;;242.07;227.10;;;;;;;;;;6251207;22;20380;-79
2023/06/02 09:04:18;;;;;;;83.47;77.93;;;;;;;;;;6251188;22;20014;-79
2023/06/02 09:06:45;;;;;;;31.38;29.08;;;;;;;;;;6276436;22;20087;-78
2023/06/02 09:09:11;;;;;;;11.57;7.38;;;;;;;;;;6250813;22;20384;-80
2023/06/02 09:11:38;;;;;;;11.35;10.07;;;;;;;;;;6250684;22;20007;-81
2023/06/02 09:14:21;;;;;;;14.73;8.82;;;;;;;;;;6275733;22;20323;-80
2023/06/02 09:16:47;;;;;;;15.60;14.05;;;;;;;;;;6276587;22;20295;-80
2023/06/02 09:19:13;;;;;;;14.48;5.78;;;;;;;;;;6250916;22;20015;-81
2023/06/02 09:21:41;;;;;;;13.32;10.73;;;;;;;;;;6303807;22;20008;-81
2023/06/02 09:24:07;;;;;;;8.55;5.90;;;;;;;;;;6276637;22;20011;-80
2023/06/02 09:26:33;;;;;;;8.00;6.88;;;;;;;;;;6303760;22;20018;-81
2023/06/02 09:29:06;;;;;;;12.05;10.48;;;;;;;;;;6250718;22;20011;-80
2023/06/02 09:31:43;;;;;;;9.45;6.55;;;;;;;;;;6276558;22;20022;-82
2023/06/02 09:34:09;;;;;;;11.40;3.50;;;;;;;;;;6303826;22;20016;-81
2023/06/02 09:36:36;;;;;;;12.35;4.03;;;;;;;;;;6276716;22;20453;-81
2023/06/02 09:39:03;;;;;;;9.70;6.03;;;;;;;;;;6251113;22;20011;-81
2023/06/02 09:41:30;;;;;;;8.77;3.20;;;;;;;;;;6276269;22;20019;-85
2023/06/02 09:43:56;;;;;;;6.07;2.50;;;;;;;;;;6275968;22;20018;-82
2023/06/02 09:46:23;;;;;;;7.47;2.63;;;;;;;;;;6303817;22;20314;-81
2023/06/02 09:48:56;;;;;;;6.70;2.83;;;;;;;;;;6249138;22;20011;-80
2023/06/02 09:51:25;;;;;;;9.57;3.10;;;;;;;;;;6302528;22;20015;-81
2023/06/02 09:53:51;;;;;;;8.98;3.45;;;;;;;;;;6274037;22;20065;-81
2023/06/02 09:56:22;;;;;;;7.28;2.53;;;;;;;;;;6249204;22;20030;-81
2023/06/02 09:58:48;;;;;;;6.78;3.72;;;;;;;;;;6248462;22;20034;-81
2023/06/02 10:01:15;;;;;;;7.47;3.13;;;;;;;;;;6250764;22;20136;-80
2023/06/02 10:03:44;;;;;;;5.28;2.28;;;;;;;;;;6252698;22;20008;-80
2023/06/02 10:06:12;;;;;;;9.43;2.50;;;;;;;;;;6278857;22;20025;-80
2023/06/02 10:08:38;;;;;;;6.97;2.55;;;;;;;;;;6278639;22;20286;-82
2023/06/02 10:11:13;;;;;;;6.15;2.28;;;;;;;;;;6278572;22;20010;-83
2023/06/02 10:13:50;;;;;;;6.45;2.80;;;;;;;;;;6305033;22;20073;-83
2023/06/02 10:16:28;;;;;;;9.82;2.50;;;;;;;;;;6305853;22;20311;-84
2023/06/02 10:19:17;;;;;;;6.68;2.88;;;;;;;;;;6279004;22;20018;-86
2023/06/02 10:21:59;;;;;;;6.78;2.72;;;;;;;;;;6306119;22;20098;-87
2023/06/02 10:24:37;;;;;;;5.57;2.28;;;;;;;;;;6252951;22;20015;-87
2023/06/02 10:27:21;;;;;;;4.13;2.30;;;;;;;;;;6277983;22;20038;-85
2023/06/02 10:29:51;;;;;;;10.68;2.97;;;;;;;;;;6251799;22;20453;-85
2023/06/02 10:32:21;;;;;;;7.72;2.30;;;;;;;;;;6252288;22;20046;-84
2023/06/02 10:34:49;;;;;;;7.78;2.80;;;;;;;;;;6305737;22;20029;-84
2023/06/02 10:37:16;;;;;;;6.70;2.92;;;;;;;;;;6277097;22;20019;-84
2023/06/02 10:39:42;;;;;;;8.70;3.38;;;;;;;;;;6277584;22;20011;-84
2023/06/02 10:42:12;;;;;;;6.00;2.72;;;;;;;;;;6275747;22;20088;-84
2023/06/02 10:44:38;;;;;;;7.72;2.90;;;;;;;;;;6277573;22;20364;-82
2023/06/02 10:47:22;;;;;;;6.18;1.90;;;;;;;;;;6252000;22;20083;-81
2023/06/02 10:49:57;;;;;;;5.75;2.05;;;;;;;;;;6277753;22;20338;-81
2023/06/02 10:52:24;;;;;;;7.15;2.00;;;;;;;;;;6276757;22;20023;-81
2023/06/02 10:55:08;;;;;;;5.65;2.40;;;;;;;;;;6252031;22;20019;-81
2023/06/02 10:57:53;;;;;;;7.65;2.88;;;;;;;;;;6305225;22;20400;-82
2023/06/02 11:00:28;;;;;;;6.68;2.65;;;;;;;;;;6277437;22;20022;-82
2023/06/02 11:02:54;;;;;;;6.28;3.35;;;;;;;;;;6278081;22;20008;-82
2023/06/02 11:05:28;;;;;;;4.20;2.33;;;;;;;;;;6252518;22;20111;-82
2023/06/02 11:08:15;;;;;;;6.70;2.65;;;;;;;;;;6252715;22;20018;-83
2023/06/02 11:10:42;;;;;;;8.95;3.03;;;;;;;;;;6251993;22;20369;-82
2023/06/02 11:13:09;;;;;;;4.85;2.60;;;;;;;;;;6276944;22;20397;-82
2023/06/02 11:15:35;;;;;;;7.72;4.10;;;;;;;;;;6251659;22;20102;-81
2023/06/02 11:18:03;;;;;;;7.82;4.05;;;;;;;;;;6277719;22;20094;-81
2023/06/02 11:20:34;;;;;;;8.88;3.97;;;;;;;;;;6305232;22;20068;-81
2023/06/02 11:23:03;;;;;;;11.63;5.82;;;;;;;;;;6278313;22;20037;-81
2023/06/02 11:25:29;;;;;;;7.50;4.72;;;;;;;;;;6304388;22;20454;-80
2023/06/02 11:27:55;;;;;;;9.40;4.75;;;;;;;;;;6277964;22;20011;-80
2023/06/02 11:30:21;;;;;;;7.50;3.72;;;;;;;;;;6277512;22;20514;-81
2023/06/02 11:32:51;;;;;;;7.65;4.65;;;;;;;;;;6304405;22;20069;-81
2023/06/02 11:35:21;;;;;;;7.40;5.25;;;;;;;;;;6277462;22;20012;-81
2023/06/02 11:38:01;;;;;;;8.73;5.47;;;;;;;;;;6252333;22;20388;-80
2023/06/02 11:40:29;;;;;;;8.02;5.55;;;;;;;;;;6251536;22;20064;-81
2023/06/02 11:42:55;;;;;;;6.53;5.93;;;;;;;;;;6277426;22;20011;-83
2023/06/02 11:45:22;;;;;;;12.20;11.05;;;;;;;;;;6276256;22;20015;-83
2023/06/02 11:47:55;;;;;;;9.43;8.25;;;;;;;;;;6305069;22;20069;-84
2023/06/02 11:50:21;;;;;;;9.70;8.55;;;;;;;;;;6305199;22;20058;-81
2023/06/02 11:52:48;;;;;;;9.32;8.43;;;;;;;;;;6304433;22;20011;-83
2023/06/02 11:55:15;;;;;;;9.98;8.98;;;;;;;;;;6276440;22;20275;-83
2023/06/02 11:57:43;;;;;;;9.18;4.18;;;;;;;;;;6277197;22;20011;-83
2023/06/02 12:00:09;;;;;;;8.82;2.50;;;;;;;;;;6277310;22;20012;-81
2023/06/02 12:02:36;;;;;;;5.80;2.47;;;;;;;;;;6277172;22;20015;-80
2023/06/02 12:05:03;;;;;;;8.38;2.50;;;;;;;;;;6275913;22;20015;-83
2023/06/02 12:07:29;;;;;;;12.77;2.70;;;;;;;;;;6303764;22;20377;-82
2023/06/02 12:09:55;;;;;;;8.18;4.20;;;;;;;;;;6250661;22;20011;-81
2023/06/02 12:12:21;;;;;;;7.10;3.00;;;;;;;;;;6251344;22;20065;-82
2023/06/02 12:14:48;;;;;;;10.10;3.45;;;;;;;;;;6277288;22;20011;-82
2023/06/02 12:17:14;;;;;;;6.53;2.55;;;;;;;;;;6304304;22;20007;-82
2023/06/02 12:19:40;;;;;;;7.45;3.30;;;;;;;;;;6304258;22;20015;-82
2023/06/02 12:22:10;;;;;;;8.45;3.70;;;;;;;;;;6275805;22;20069;-82
2023/06/02 12:24:39;;;;;;;9.57;4.32;;;;;;;;;;6275722;22;20041;-84
2023/06/02 12:27:06;;;;;;;8.63;3.80;;;;;;;;;;6277219;22;20011;-81
2023/06/02 12:29:33;;;;;;;8.57;3.35;;;;;;;;;;6251117;22;20045;-82
2023/06/02 12:32:01;;;;;;;7.65;3.83;;;;;;;;;;6276761;22;20094;-83
2023/06/02 12:34:27;;;;;;;10.27;4.22;;;;;;;;;;6251043;22;20338;-81
2023/06/02 12:36:53;;;;;;;12.90;3.95;;;;;;;;;;6248344;22;20018;-82
2023/06/02 12:39:19;;;;;;;8.23;3.33;;;;;;;;;;6276235;22;20007;-83
2023/06/02 12:41:45;;;;;;;5.72;3.53;;;;;;;;;;6276116;22;20051;-83
2023/06/02 12:44:11;;;;;;;11.48;4.35;;;;;;;;;;6251181;22;20022;-82
2023/06/02 12:46:38;;;;;;;5.82;4.13;;;;;;;;;;6250786;22;20049;-81
2023/06/02 12:49:05;;;;;;;11.23;4.60;;;;;;;;;;6277003;22;20011;-81
2023/06/02 12:51:33;;;;;;;12.05;4.68;;;;;;;;;;6250395;22;20018;-82
2023/06/02 12:53:59;;;;;;;8.85;3.63;;;;;;;;;;6250964;22;20072;-81
2023/06/02 12:56:25;;;;;;;10.07;5.05;;;;;;;;;;6304119;22;20069;-83
2023/06/02 12:58:51;;;;;;;12.88;4.25;;;;;;;;;;6276810;22;20021;-81
2023/06/02 13:01:17;;;;;;;11.95;4.85;;;;;;;;;;6303891;22;20084;-81
2023/06/02 13:03:49;;;;;;;13.93;4.72;;;;;;;;;;6251358;22;20114;-80
2023/06/02 13:06:16;;;;;;;9.63;4.60;;;;;;;;;;6303369;22;20049;-81
2023/06/02 13:08:42;;;;;;;9.55;4.78;;;;;;;;;;6276315;22;20312;-82
2023/06/02 13:11:09;;;;;;;9.40;4.13;;;;;;;;;;6277531;22;20015;-81
2023/06/02 13:13:35;;;;;;;8.70;3.60;;;;;;;;;;6304245;22;20025;-81
2023/06/02 13:16:01;;;;;;;9.90;3.22;;;;;;;;;;6276500;22;20337;-84
2023/06/02 13:18:27;;;;;;;11.95;5.60;;;;;;;;;;6276281;22;20012;-81
2023/06/02 13:20:56;;;;;;;10.20;3.50;;;;;;;;;;6275575;22;20069;-82
2023/06/02 13:23:23;;;;;;;10.05;4.63;;;;;;;;;;6276348;22;20015;-80
2023/06/02 13:25:49;;;;;;;10.75;3.70;;;;;;;;;;6250739;22;20018;-80
2023/06/02 13:28:15;;;;;;;7.63;3.40;;;;;;;;;;6276402;22;20148;-82
2023/06/02 13:30:41;;;;;;;11.48;3.40;;;;;;;;;;6250865;22;20016;-81
2023/06/02 13:33:07;;;;;;;10.75;4.97;;;;;;;;;;6304263;22;20101;-82
2023/06/02 13:35:33;;;;;;;9.30;3.83;;;;;;;;;;6276995;22;20449;-82
2023/06/02 13:37:59;;;;;;;10.10;4.70;;;;;;;;;;6279032;22;20017;-81
2023/06/02 13:40:27;;;;;;;10.40;4.22;;;;;;;;;;6252396;22;20164;-82
2023/06/02 13:42:53;;;;;;;9.77;5.38;;;;;;;;;;6253121;22;20115;-82
2023/06/02 13:45:19;;;;;;;10.23;4.72;;;;;;;;;;6278555;22;20015;-80
2023/06/02 13:47:45;;;;;;;15.82;4.90;;;;;;;;;;6278546;22;20381;-81
2023/06/02 13:50:11;;;;;;;8.65;4.32;;;;;;;;;;6278117;22;20469;-81
2023/06/02 13:52:37;;;;;;;8.40;4.65;;;;;;;;;;6278525;22;20027;-82
2023/06/02 13:55:03;;;;;;;10.77;5.13;;;;;;;;;;6278521;22;20023;-81
2023/06/02 13:57:29;;;;;;;9.82;4.03;;;;;;;;;;6305754;22;20383;-81
2023/06/02 13:59:55;;;;;;;10.40;5.65;;;;;;;;;;6278743;22;20334;-83
2023/06/02 14:02:22;;;;;;;14.20;5.07;;;;;;;;;;6305224;22;20011;-82
2023/06/02 14:04:48;;;;;;;8.07;4.35;;;;;;;;;;6252214;22;20007;-83
2023/06/02 14:07:14;;;;;;;11.23;6.40;;;;;;;;;;6252992;22;20040;-82
2023/06/02 14:09:45;;;;;;;11.02;5.05;;;;;;;;;;6305827;22;20091;-84
2023/06/02 14:12:11;;;;;;;8.43;5.47;;;;;;;;;;6252457;22;20012;-82
2023/06/02 14:14:37;;;;;;;9.88;5.45;;;;;;;;;;6252363;22;20665;-84
2023/06/02 14:17:03;;;;;;;9.52;5.30;;;;;;;;;;6278179;22;20098;-81
2023/06/02 14:19:29;;;;;;;11.43;4.75;;;;;;;;;;6276441;22;20039;-83
2023/06/02 14:21:55;;;;;;;10.57;5.35;;;;;;;;;;6278968;22;20011;-83
2023/06/02 14:24:21;;;;;;;13.23;6.03;;;;;;;;;;6305742;22;20453;-83
2023/06/02 14:26:50;;;;;;;10.43;6.60;;;;;;;;;;6278453;22;20160;-84
2023/06/02 14:29:16;;;;;;;15.43;9.52;;;;;;;;;;6278800;22;20082;-85